Time;durP1;ratioP1;P1;durP2;ratioP2;P2;SDS_P1;SDS_P2;PMS_P1;PMS_P2;Temp;Humidity;BMP_temperature;BMP_pressure;BME280_temperature;BME280_humidity;BME280_pressure;Samples;Min_cycle;Max_cycle;Signal;HPM_P1;HPM_P2
2023/01/18 00:00:45;;;;;;;9.57;4.93;;;-1.70;99.90;;;;;;5051371;28;20202;-79
2023/01/18 00:03:12;;;;;;;10.33;5.33;;;-1.70;99.90;;;;;;5057632;28;20205;-79
2023/01/18 00:05:42;;;;;;;9.23;4.93;;;-1.70;99.90;;;;;;5057899;28;20205;-78
2023/01/18 00:08:12;;;;;;;10.80;5.37;;;-1.70;99.90;;;;;;5056650;28;20273;-80
2023/01/18 00:10:38;;;;;;;14.97;6.57;;;-1.70;99.90;;;;;;5056417;28;20555;-79
2023/01/18 00:13:05;;;;;;;13.00;5.67;;;-1.70;99.90;;;;;;5058205;28;20232;-78
2023/01/18 00:15:31;;;;;;;11.23;5.13;;;-1.80;99.90;;;;;;5057860;28;20639;-79
2023/01/18 00:17:57;;;;;;;10.63;5.10;;;-1.80;99.90;;;;;;5056822;28;20272;-78
2023/01/18 00:20:25;;;;;;;9.43;5.27;;;-1.90;99.90;;;;;;5057491;28;20653;-79
2023/01/18 00:22:51;;;;;;;13.33;5.17;;;-1.90;99.90;;;;;;5056138;28;20169;-79
2023/01/18 00:25:18;;;;;;;7.23;5.03;;;-1.90;99.90;;;;;;5057785;28;20192;-79
2023/01/18 00:27:46;;;;;;;10.97;5.33;;;-2.00;99.90;;;;;;5056141;28;20171;-79
2023/01/18 00:30:13;;;;;;;15.87;5.43;;;-2.00;99.90;;;;;;5057948;28;20173;-80
2023/01/18 00:32:38;;;;;;;7.93;5.07;;;-2.00;99.90;;;;;;5058600;28;20183;-78
2023/01/18 00:35:06;;;;;;;6.00;4.57;;;-2.00;99.90;;;;;;5058462;28;20173;-78
2023/01/18 00:37:33;;;;;;;8.43;5.27;;;-2.00;99.90;;;;;;5057422;28;20307;-80
2023/01/18 00:39:58;;;;;;;11.97;5.10;;;-2.00;99.90;;;;;;5038183;28;20634;-79
2023/01/18 00:45:08;;;;;;;9.07;4.83;;;-2.10;99.90;;;;;;5037498;28;20194;-79
2023/01/18 00:47:34;;;;;;;8.87;5.03;;;-2.10;99.90;;;;;;5036382;28;20560;-80
2023/01/18 00:49:59;;;;;;;8.47;5.50;;;-2.10;99.90;;;;;;5058666;28;20186;-79
2023/01/18 00:52:25;;;;;;;10.00;5.30;;;-2.10;99.90;;;;;;5060338;28;20200;-79
2023/01/18 00:54:51;;;;;;;9.97;5.07;;;-2.10;99.90;;;;;;5060241;28;20174;-80
2023/01/18 00:57:16;;;;;;;9.00;4.47;;;-2.10;99.90;;;;;;5061720;28;20165;-78
2023/01/18 00:59:42;;;;;;;8.20;5.50;;;-2.20;99.90;;;;;;5060893;28;20229;-78
2023/01/18 01:02:07;;;;;;;8.83;5.27;;;-2.20;99.90;;;;;;5060967;28;20239;-79
2023/01/18 01:07:17;;;;;;;9.40;5.30;;;-2.20;99.90;;;;;;5061592;28;20169;-78
2023/01/18 01:09:43;;;;;;;11.27;5.50;;;-2.20;99.90;;;;;;5060261;28;20189;-79
2023/01/18 01:26:07;;;;;;;9.30;4.97;;;-2.20;99.90;;;;;;5041303;28;20239;-79
2023/01/18 01:28:35;;;;;;;11.63;5.23;;;-2.30;99.90;;;;;;5047432;28;20175;-79
2023/01/18 01:31:02;;;;;;;12.33;5.93;;;-2.30;99.90;;;;;;5058862;28;20278;-79
2023/01/18 01:33:29;;;;;;;10.63;5.00;;;-2.40;99.90;;;;;;5060645;28;20196;-79
2023/01/18 01:36:00;;;;;;;8.57;4.83;;;-2.50;99.90;;;;;;5061066;28;20172;-79
2023/01/18 01:38:26;;;;;;;9.47;5.80;;;-2.50;99.90;;;;;;5058734;28;20187;-79
2023/01/18 01:41:03;;;;;;;10.40;5.40;;;-2.50;99.90;;;;;;5060877;28;20203;-79
2023/01/18 01:43:44;;;;;;;9.40;4.50;;;-2.50;99.90;;;;;;5061598;28;20166;-79
2023/01/18 01:46:31;;;;;;;10.20;5.13;;;-2.40;99.90;;;;;;5060402;28;20210;-79
2023/01/18 01:49:13;;;;;;;11.53;5.20;;;-2.40;99.90;;;;;;5057256;28;20179;-79
2023/01/18 01:51:43;;;;;;;8.93;5.67;;;-2.40;99.90;;;;;;5058296;28;20198;-78
2023/01/18 01:54:34;;;;;;;9.20;5.40;;;-2.50;99.90;;;;;;5058464;28;20171;-79
2023/01/18 01:57:14;;;;;;;9.77;5.23;;;-2.50;99.90;;;;;;5057942;28;20556;-79
2023/01/18 01:59:48;;;;;;;12.23;5.40;;;-2.50;99.90;;;;;;5061549;28;20175;-79
2023/01/18 02:02:14;;;;;;;11.83;5.57;;;-2.50;99.90;;;;;;5060915;28;20196;-78
2023/01/18 02:04:43;;;;;;;8.50;5.00;;;-2.50;99.90;;;;;;5058747;28;20183;-78
2023/01/18 02:07:10;;;;;;;8.73;5.23;;;-2.50;99.90;;;;;;5057976;28;20280;-79
2023/01/18 02:09:36;;;;;;;8.87;5.57;;;-2.50;99.90;;;;;;5039092;28;20181;-78
2023/01/18 02:12:02;;;;;;;10.50;5.07;;;-2.50;99.90;;;;;;5039354;28;20222;-79
2023/01/18 02:14:29;;;;;;;9.40;5.03;;;-2.60;99.90;;;;;;5039946;28;20205;-79
2023/01/18 02:17:18;;;;;;;12.77;5.20;;;-2.60;99.90;;;;;;5039959;28;20212;-79
2023/01/18 02:20:07;;;;;;;8.23;5.80;;;-2.60;99.90;;;;;;5056916;28;20616;-79
2023/01/18 02:22:54;;;;;;;7.63;5.23;;;-2.60;99.90;;;;;;5056810;28;20627;-79
2023/01/18 02:25:46;;;;;;;8.00;4.70;;;-2.60;99.90;;;;;;5058623;28;20262;-78
2023/01/18 02:28:24;;;;;;;12.37;5.67;;;-2.60;99.90;;;;;;5049171;28;20190;-78
2023/01/18 02:30:59;;;;;;;8.67;5.17;;;-2.60;99.90;;;;;;5058326;28;20192;-79
2023/01/18 02:33:38;;;;;;;9.93;4.70;;;-2.70;99.90;;;;;;5057213;28;20228;-79
2023/01/18 02:36:05;;;;;;;7.87;5.13;;;-2.70;99.90;;;;;;5057822;28;20624;-79
2023/01/18 02:38:38;;;;;;;15.03;5.70;;;-2.70;99.90;;;;;;5058026;28;20190;-78
2023/01/18 02:46:29;;;;;;;9.77;5.67;;;-2.70;99.90;;;;;;5057018;28;20200;-79
2023/01/18 02:47:08;;;;;;;10.60;5.70;;;-2.70;99.90;;;;;;5057280;28;20215;-78
2023/01/18 02:49:34;;;;;;;10.83;5.10;;;-2.70;99.90;;;;;;5056385;28;20181;-79
2023/01/18 02:52:04;;;;;;;10.43;5.73;;;-2.80;99.90;;;;;;5055273;28;20279;-77
2023/01/18 02:54:33;;;;;;;12.73;5.27;;;-2.80;99.90;;;;;;5057670;28;20162;-78
2023/01/18 02:57:03;;;;;;;9.67;5.27;;;-2.80;99.90;;;;;;5057040;28;20177;-78
2023/01/18 02:59:32;;;;;;;10.43;5.03;;;-2.90;99.90;;;;;;5040170;28;20185;-78
2023/01/18 03:02:00;;;;;;;12.70;5.10;;;-2.90;99.90;;;;;;5037059;28;20192;-78
2023/01/18 03:04:35;;;;;;;8.93;5.87;;;-2.90;99.90;;;;;;5038167;28;20225;-79
2023/01/18 03:07:11;;;;;;;11.73;6.07;;;-3.00;99.90;;;;;;5052511;28;20201;-78
2023/01/18 03:09:38;;;;;;;9.60;5.27;;;-2.90;99.90;;;;;;5036331;28;20161;-78
2023/01/18 03:12:44;;;;;;;8.87;5.33;;;-3.00;99.90;;;;;;5052829;28;20196;-78
2023/01/18 03:15:20;;;;;;;11.10;5.93;;;-3.00;99.90;;;;;;5057170;28;20160;-79
2023/01/18 03:17:58;;;;;;;10.63;5.83;;;-3.00;99.90;;;;;;5057663;28;20176;-78
2023/01/18 03:20:28;;;;;;;12.90;5.97;;;-3.00;99.90;;;;;;5020845;28;1041062;-79
2023/01/18 03:23:39;;;;;;;8.97;5.37;;;-3.00;99.90;;;;;;5057023;28;20184;-78
2023/01/18 03:35:25;;;;;;;11.93;5.20;;;-3.00;99.90;;;;;;5056752;28;20571;-79
2023/01/18 03:37:53;;;;;;;12.47;6.63;;;-3.00;99.90;;;;;;5056991;28;20173;-79
2023/01/18 03:40:28;;;;;;;9.83;6.53;;;-3.00;99.90;;;;;;5058046;28;20173;-79
2023/01/18 03:43:10;;;;;;;11.40;5.77;;;-3.10;99.90;;;;;;5057320;28;20531;-78
2023/01/18 03:45:42;;;;;;;12.70;5.90;;;-3.10;99.90;;;;;;5055490;28;20240;-78
2023/01/18 03:48:09;;;;;;;12.70;6.93;;;-3.10;99.90;;;;;;5056493;28;20185;-79
2023/01/18 03:51:14;;;;;;;10.80;5.70;;;-3.10;99.90;;;;;;5057485;28;20593;-78
2023/01/18 03:54:04;;;;;;;15.37;6.37;;;-3.10;99.90;;;;;;5049705;28;20190;-78
2023/01/18 03:56:48;;;;;;;13.03;6.70;;;-3.20;99.90;;;;;;5057581;28;20168;-79
2023/01/18 03:59:14;;;;;;;9.50;5.70;;;-3.20;99.90;;;;;;5056667;28;20183;-79
2023/01/18 04:01:40;;;;;;;9.53;5.93;;;-3.10;99.90;;;;;;5057151;28;20191;-79
2023/01/18 04:04:06;;;;;;;11.87;5.97;;;-3.10;99.90;;;;;;5056776;28;20660;-78
2023/01/18 04:06:32;;;;;;;10.73;5.73;;;-3.20;99.90;;;;;;5056392;28;20205;-79
2023/01/18 04:08:58;;;;;;;10.03;5.93;;;-3.20;99.90;;;;;;5042102;28;20617;-79
2023/01/18 04:11:23;;;;;;;9.73;5.43;;;-3.20;99.90;;;;;;5034965;28;20230;-79
2023/01/18 04:13:49;;;;;;;11.60;6.43;;;-3.20;99.90;;;;;;5036754;28;20182;-79
2023/01/18 04:16:15;;;;;;;10.20;5.97;;;-3.20;99.90;;;;;;5035394;28;20660;-79
2023/01/18 04:18:40;;;;;;;7.80;5.43;;;-3.20;99.90;;;;;;5053904;28;20694;-79
2023/01/18 04:21:06;;;;;;;9.13;5.63;;;-3.20;99.90;;;;;;5056200;28;20637;-79
2023/01/18 04:23:31;;;;;;;8.93;6.30;;;-3.20;99.90;;;;;;5054942;28;20177;-79
2023/01/18 04:25:57;;;;;;;10.03;5.83;;;-3.20;99.90;;;;;;5060386;28;20209;-79
2023/01/18 04:28:25;;;;;;;8.30;5.43;;;-3.10;99.90;;;;;;5059560;28;20177;-79
2023/01/18 04:30:52;;;;;;;14.10;6.03;;;-3.20;99.90;;;;;;5060340;28;20193;-79
2023/01/18 04:33:19;;;;;;;8.20;4.87;;;-3.30;99.90;;;;;;5059712;28;20205;-79
2023/01/18 04:35:48;;;;;;;9.10;5.73;;;-3.30;99.90;;;;;;5060901;28;20179;-79
2023/01/18 04:38:15;;;;;;;9.33;5.70;;;-3.40;99.90;;;;;;5052305;28;20184;-79
2023/01/18 04:40:41;;;;;;;9.33;5.67;;;-3.40;99.90;;;;;;5040571;28;20283;-78
2023/01/18 04:43:06;;;;;;;11.07;6.37;;;-3.40;99.90;;;;;;5039853;28;20200;-79
2023/01/18 04:45:32;;;;;;;11.83;5.93;;;-3.40;99.90;;;;;;5037738;28;20204;-79
2023/01/18 04:47:57;;;;;;;10.53;5.80;;;-3.40;99.90;;;;;;5057155;28;20287;-79
2023/01/18 04:50:23;;;;;;;9.53;5.60;;;-3.50;99.90;;;;;;5058820;28;20181;-79
2023/01/18 04:52:48;;;;;;;10.37;5.50;;;-3.50;99.90;;;;;;5058763;28;20174;-79
2023/01/18 04:55:14;;;;;;;8.53;5.47;;;-3.50;99.90;;;;;;5058868;28;20177;-78
2023/01/18 04:57:44;;;;;;;10.73;5.97;;;-3.50;99.90;;;;;;5058590;28;20538;-78
2023/01/18 05:00:11;;;;;;;10.37;6.30;;;-3.50;99.90;;;;;;5059253;28;20172;-79
2023/01/18 05:02:37;;;;;;;8.33;5.50;;;-3.60;99.90;;;;;;5058556;28;20168;-78
2023/01/18 05:05:03;;;;;;;11.27;6.47;;;-3.60;99.90;;;;;;5059085;28;20182;-78
2023/01/18 05:07:30;;;;;;;14.83;5.90;;;-3.60;99.90;;;;;;5056343;28;20172;-78
2023/01/18 05:09:55;;;;;;;10.47;5.33;;;-3.60;99.90;;;;;;5036391;28;20263;-78
2023/01/18 05:12:21;;;;;;;9.23;5.50;;;-3.60;99.90;;;;;;5036393;28;20201;-78
2023/01/18 05:14:47;;;;;;;8.83;5.37;;;-3.60;99.90;;;;;;5052945;28;20184;-78
2023/01/18 05:17:12;;;;;;;11.57;5.60;;;-3.70;99.90;;;;;;5037810;28;20187;-78
2023/01/18 05:19:39;;;;;;;8.67;5.40;;;-3.80;99.90;;;;;;5053257;28;20659;-78
2023/01/18 05:22:05;;;;;;;10.77;5.20;;;-3.60;99.90;;;;;;5056343;28;20234;-77
2023/01/18 05:24:31;;;;;;;9.77;5.90;;;-3.70;99.90;;;;;;5058252;28;20234;-79
2023/01/18 05:26:57;;;;;;;8.90;5.47;;;-3.70;99.90;;;;;;5057597;28;20197;-78
2023/01/18 05:29:22;;;;;;;8.83;5.63;;;-3.70;99.90;;;;;;5055535;28;20202;-78
2023/01/18 05:31:48;;;;;;;14.40;5.33;;;-3.70;99.90;;;;;;5055661;28;20228;-78
2023/01/18 05:34:14;;;;;;;9.17;5.10;;;-3.60;99.90;;;;;;5057031;28;20248;-78
2023/01/18 05:36:39;;;;;;;10.67;5.33;;;-3.80;99.90;;;;;;5056441;28;20183;-78
2023/01/18 05:39:05;;;;;;;10.90;5.23;;;-3.80;99.90;;;;;;5056255;28;20180;-78
2023/01/18 05:41:30;;;;;;;10.43;6.40;;;-3.90;99.90;;;;;;5060004;28;20191;-78
2023/01/18 05:43:56;;;;;;;11.83;5.87;;;-3.80;99.90;;;;;;5061490;28;20176;-78
2023/01/18 05:46:21;;;;;;;11.63;5.97;;;-3.70;99.90;;;;;;5057895;28;20204;-78
2023/01/18 05:48:47;;;;;;;9.10;5.87;;;-3.80;99.90;;;;;;5056730;28;20207;-78
2023/01/18 05:51:12;;;;;;;9.60;5.77;;;-3.80;99.90;;;;;;5056889;28;20201;-78
2023/01/18 05:53:39;;;;;;;8.83;5.57;;;-3.80;99.90;;;;;;5055637;28;20176;-77
2023/01/18 05:56:06;;;;;;;9.67;5.07;;;-3.70;99.90;;;;;;5057428;28;20662;-79
2023/01/18 05:58:31;;;;;;;9.70;6.57;;;-3.70;99.90;;;;;;5056068;28;20192;-78
2023/01/18 06:00:57;;;;;;;7.93;5.53;;;-3.80;99.90;;;;;;5057135;28;20196;-78
2023/01/18 06:03:24;;;;;;;12.47;5.53;;;-3.80;99.90;;;;;;5056654;28;20632;-79
2023/01/18 06:05:50;;;;;;;12.63;6.10;;;-3.80;99.90;;;;;;5055957;28;20199;-78
2023/01/18 06:08:16;;;;;;;10.70;5.50;;;-3.80;99.90;;;;;;5055595;28;20180;-78
2023/01/18 06:10:42;;;;;;;9.10;5.50;;;-3.80;99.90;;;;;;5057448;28;20192;-78
2023/01/18 06:13:08;;;;;;;9.97;5.57;;;-3.90;99.90;;;;;;5055986;28;20176;-79
2023/01/18 06:15:34;;;;;;;8.70;5.70;;;-3.90;99.90;;;;;;5059067;28;20175;-80
2023/01/18 06:18:00;;;;;;;10.57;6.13;;;-3.80;99.90;;;;;;5059337;28;20214;-81
2023/01/18 06:20:29;;;;;;;10.87;5.40;;;-3.70;99.90;;;;;;5059673;28;20195;-80
2023/01/18 06:22:58;;;;;;;11.60;5.93;;;-3.80;99.90;;;;;;5058833;28;20192;-80
2023/01/18 06:25:24;;;;;;;11.73;6.17;;;-3.80;99.90;;;;;;5059878;28;20258;-80
2023/01/18 06:27:50;;;;;;;14.30;6.40;;;-3.80;99.90;;;;;;5058428;28;20233;-80
2023/01/18 06:30:16;;;;;;;12.03;5.67;;;-3.80;99.90;;;;;;5059099;28;20175;-80
2023/01/18 06:32:41;;;;;;;10.60;5.60;;;-3.80;99.90;;;;;;5060719;28;20706;-80
2023/01/18 06:35:07;;;;;;;8.77;5.30;;;-3.80;99.90;;;;;;5060858;28;20195;-80
2023/01/18 06:37:33;;;;;;;10.17;5.57;;;-3.80;99.90;;;;;;5058987;28;20200;-79
2023/01/18 06:39:58;;;;;;;8.93;5.30;;;-3.80;99.90;;;;;;5064974;28;20648;-79
2023/01/18 06:42:24;;;;;;;11.47;5.67;;;-3.80;99.90;;;;;;5059493;28;20198;-80
2023/01/18 06:44:49;;;;;;;9.97;5.17;;;-3.80;99.90;;;;;;5060180;28;20179;-80
2023/01/18 06:47:18;;;;;;;9.93;5.70;;;-3.80;99.90;;;;;;5054073;28;20199;-78
2023/01/18 06:49:47;;;;;;;7.77;5.13;;;-3.90;99.90;;;;;;5053756;28;20639;-78
2023/01/18 06:52:13;;;;;;;8.60;5.57;;;-3.90;99.90;;;;;;5053881;28;20198;-78
2023/01/18 06:54:39;;;;;;;9.70;6.37;;;-3.80;99.90;;;;;;5055777;28;20184;-79
2023/01/18 06:57:04;;;;;;;9.67;5.90;;;-3.80;99.90;;;;;;5053813;28;20176;-79
2023/01/18 06:59:30;;;;;;;10.27;5.87;;;-3.80;99.90;;;;;;5054272;28;20205;-78
2023/01/18 07:01:55;;;;;;;9.33;5.73;;;-3.80;99.90;;;;;;5053325;28;20210;-78
2023/01/18 07:04:21;;;;;;;9.53;5.67;;;-3.80;99.90;;;;;;5054957;28;20278;-78
2023/01/18 07:06:46;;;;;;;9.00;6.20;;;-3.80;99.90;;;;;;5055355;28;20207;-78
2023/01/18 07:09:13;;;;;;;8.10;5.57;;;-3.80;99.90;;;;;;5054646;28;20352;-78
2023/01/18 07:11:42;;;;;;;12.03;5.50;;;-3.80;99.90;;;;;;5053561;28;20282;-78
2023/01/18 07:14:11;;;;;;;10.20;5.83;;;-3.80;99.90;;;;;;5054618;28;20172;-77
2023/01/18 07:16:37;;;;;;;11.30;5.87;;;-3.80;99.90;;;;;;5053533;28;20661;-77
2023/01/18 07:19:03;;;;;;;10.67;5.97;;;-3.80;99.90;;;;;;5051251;28;20189;-77
2023/01/18 07:21:29;;;;;;;7.57;5.87;;;-3.70;99.90;;;;;;5052974;28;20558;-77
2023/01/18 07:23:56;;;;;;;10.57;5.47;;;-3.70;99.90;;;;;;5053117;28;20222;-77
2023/01/18 07:26:22;;;;;;;12.93;6.67;;;-3.70;99.90;;;;;;5052976;28;20210;-77
2023/01/18 07:28:48;;;;;;;13.23;6.27;;;-3.70;99.90;;;;;;5052408;28;20542;-77
2023/01/18 07:31:15;;;;;;;12.27;5.70;;;-3.70;99.90;;;;;;5052784;28;20738;-77
2023/01/18 07:33:41;;;;;;;10.53;5.13;;;-3.70;99.90;;;;;;5051619;28;20601;-77
2023/01/18 07:36:09;;;;;;;12.63;6.57;;;-3.70;99.90;;;;;;5052831;28;20187;-77
2023/01/18 07:38:35;;;;;;;12.50;6.80;;;-3.70;99.90;;;;;;5051086;28;20214;-77
2023/01/18 07:41:04;;;;;;;11.40;6.20;;;-3.60;99.90;;;;;;5052985;28;20207;-77
2023/01/18 07:43:31;;;;;;;12.23;6.57;;;-3.50;99.90;;;;;;5053321;28;20175;-77
2023/01/18 07:45:57;;;;;;;9.63;6.37;;;-3.60;99.90;;;;;;5051440;28;20675;-76
2023/01/18 07:48:27;;;;;;;9.53;5.60;;;-3.60;99.90;;;;;;5050678;28;20180;-77
2023/01/18 07:50:58;;;;;;;10.80;6.10;;;-3.60;99.90;;;;;;5052691;28;20279;-76
2023/01/18 07:53:25;;;;;;;13.60;6.40;;;-3.50;99.90;;;;;;5052760;28;20326;-77
2023/01/18 07:55:51;;;;;;;10.13;7.00;;;-3.50;99.90;;;;;;5051398;28;20182;-77
2023/01/18 07:58:18;;;;;;;13.80;6.70;;;-3.50;99.90;;;;;;5050619;28;20192;-77
2023/01/18 08:00:44;;;;;;;12.50;7.37;;;-3.40;99.90;;;;;;5051326;28;20234;-77
2023/01/18 08:03:15;;;;;;;11.80;7.17;;;-3.40;99.90;;;;;;5052534;28;20184;-77
2023/01/18 08:05:42;;;;;;;13.50;7.73;;;-3.40;99.90;;;;;;5052457;28;20210;-77
2023/01/18 08:08:12;;;;;;;11.37;7.17;;;-3.40;99.90;;;;;;5051659;28;20359;-77
2023/01/18 08:10:38;;;;;;;14.53;7.47;;;-3.40;99.90;;;;;;5052561;28;20207;-77
2023/01/18 08:13:05;;;;;;;12.77;8.07;;;-3.30;99.90;;;;;;5052786;28;20199;-77
2023/01/18 08:15:31;;;;;;;13.03;7.50;;;-3.30;99.90;;;;;;5052718;28;20254;-77
2023/01/18 08:17:59;;;;;;;14.93;8.10;;;-3.30;99.90;;;;;;5051062;28;20615;-77
2023/01/18 08:20:25;;;;;;;12.10;8.13;;;-3.30;99.90;;;;;;5052470;28;20550;-77
2023/01/18 08:22:55;;;;;;;13.63;8.07;;;-3.20;99.90;;;;;;5052588;28;20260;-77
2023/01/18 08:25:21;;;;;;;20.97;8.57;;;-3.10;99.90;;;;;;5052435;28;20227;-77
2023/01/18 08:27:47;;;;;;;15.17;8.70;;;-3.10;99.90;;;;;;5050143;28;20203;-77
2023/01/18 08:30:13;;;;;;;14.17;8.20;;;-3.10;99.90;;;;;;5050905;28;20215;-77
2023/01/18 08:32:39;;;;;;;13.33;8.83;;;-3.10;99.90;;;;;;5052251;28;20174;-77
2023/01/18 08:35:05;;;;;;;13.67;7.70;;;-3.10;99.90;;;;;;5050968;28;20181;-77
2023/01/18 08:37:31;;;;;;;14.87;8.37;;;-3.00;99.90;;;;;;5051042;28;20314;-77
2023/01/18 08:39:57;;;;;;;18.27;8.93;;;-3.00;99.90;;;;;;5031700;28;20739;-77
2023/01/18 08:42:22;;;;;;;18.83;9.70;;;-3.00;99.90;;;;;;5032409;28;20196;-77
2023/01/18 08:44:48;;;;;;;14.70;10.03;;;-2.90;99.90;;;;;;5032354;28;20255;-77
2023/01/18 08:47:14;;;;;;;21.37;10.37;;;-2.90;99.90;;;;;;5047588;28;20213;-77
2023/01/18 08:49:40;;;;;;;18.37;9.90;;;-2.80;99.90;;;;;;5048318;28;20589;-77
2023/01/18 08:52:06;;;;;;;17.23;10.30;;;-2.80;99.90;;;;;;5052361;28;20229;-77
2023/01/18 08:54:31;;;;;;;19.37;10.37;;;-2.70;99.90;;;;;;5050940;28;20235;-78
2023/01/18 08:56:57;;;;;;;21.00;9.73;;;-2.70;99.90;;;;;;5050900;28;20181;-76
2023/01/18 08:59:22;;;;;;;18.03;10.40;;;-2.70;99.90;;;;;;5051078;28;20218;-77
2023/01/18 09:01:48;;;;;;;17.60;10.97;;;-2.60;99.90;;;;;;5051980;28;20198;-76
2023/01/18 09:04:14;;;;;;;16.10;10.53;;;-2.60;99.90;;;;;;5050784;28;20180;-77
2023/01/18 09:06:39;;;;;;;23.77;11.20;;;-2.50;99.90;;;;;;5051975;28;20692;-77
2023/01/18 09:09:05;;;;;;;18.27;12.13;;;-2.40;99.90;;;;;;5049507;28;20257;-76
2023/01/18 09:11:30;;;;;;;18.83;10.83;;;-2.40;99.90;;;;;;5053841;28;20744;-77
2023/01/18 09:13:58;;;;;;;18.77;10.13;;;-2.40;99.90;;;;;;5055674;28;20639;-77
2023/01/18 09:16:23;;;;;;;20.13;10.77;;;-2.30;99.90;;;;;;5054362;28;20200;-77
2023/01/18 09:18:49;;;;;;;19.13;10.90;;;-2.20;99.90;;;;;;5054363;28;20214;-77
2023/01/18 09:21:19;;;;;;;22.87;10.97;;;-2.10;99.90;;;;;;5054000;28;20218;-77
2023/01/18 09:23:47;;;;;;;20.97;11.97;;;-2.10;99.90;;;;;;5056087;28;20162;-77
2023/01/18 09:26:15;;;;;;;19.77;12.17;;;-2.10;99.90;;;;;;5055655;28;20196;-77
2023/01/18 09:28:47;;;;;;;18.23;11.87;;;-2.00;99.90;;;;;;5047696;28;20301;-76
2023/01/18 09:31:13;;;;;;;19.23;12.17;;;-2.00;99.90;;;;;;5050934;28;20200;-77
2023/01/18 09:33:41;;;;;;;27.17;13.17;;;-2.00;99.90;;;;;;5035777;28;20569;-77
2023/01/18 09:36:09;;;;;;;23.43;13.73;;;-1.90;99.90;;;;;;5035448;28;20170;-77
2023/01/18 09:38:35;;;;;;;25.93;13.50;;;-1.90;99.90;;;;;;5045303;28;20193;-77
2023/01/18 09:41:04;;;;;;;21.33;14.20;;;-1.80;99.90;;;;;;5055287;28;20538;-77
2023/01/18 09:43:41;;;;;;;26.60;14.80;;;-1.80;99.90;;;;;;5055312;28;20180;-77
2023/01/18 09:46:18;;;;;;;32.23;14.37;;;-1.70;99.90;;;;;;5055313;28;20183;-77
2023/01/18 09:48:48;;;;;;;24.37;15.77;;;-1.60;99.90;;;;;;5054421;28;20236;-77
2023/01/18 09:51:21;;;;;;;28.07;14.47;;;-1.60;99.90;;;;;;5054116;28;20670;-77
2023/01/18 09:54:04;;;;;;;30.00;15.97;;;-1.50;99.90;;;;;;5055501;28;20246;-77
2023/01/18 09:56:40;;;;;;;29.10;14.57;;;-1.50;99.90;;;;;;5055193;28;20166;-77
2023/01/18 09:59:19;;;;;;;24.43;14.20;;;-1.40;99.90;;;;;;5054156;28;20183;-77
2023/01/18 10:01:46;;;;;;;21.37;13.97;;;-1.40;99.90;;;;;;5054955;28;20676;-76
2023/01/18 10:04:31;;;;;;;24.73;13.87;;;-1.30;99.90;;;;;;5053629;28;20186;-77
2023/01/18 10:07:11;;;;;;;26.97;15.13;;;-1.20;99.90;;;;;;5055128;28;20197;-77
2023/01/18 10:09:47;;;;;;;33.10;15.67;;;-1.20;99.90;;;;;;5052548;28;20265;-78
2023/01/18 10:12:35;;;;;;;25.83;14.17;;;-1.10;99.90;;;;;;5055003;28;20190;-77
2023/01/18 10:15:19;;;;;;;26.40;14.70;;;-1.10;99.90;;;;;;5054736;28;20150;-77
2023/01/18 10:17:46;;;;;;;26.17;15.17;;;-1.10;99.90;;;;;;5053347;28;20962;-77
2023/01/18 10:20:15;;;;;;;22.10;14.33;;;-1.00;99.90;;;;;;5047352;28;20175;-77
2023/01/18 10:23:33;;;;;;;28.40;15.27;;;-1.00;99.90;;;;;;5033665;28;20720;-77
2023/01/18 10:26:08;;;;;;;27.00;14.83;;;-0.90;99.90;;;;;;5016430;28;20306;-78
2023/01/18 10:28:47;;;;;;;23.80;15.27;;;-0.90;99.90;;;;;;5052968;28;20665;-77
2023/01/18 10:31:34;;;;;;;24.70;14.73;;;-0.90;99.90;;;;;;5053383;28;20574;-78
2023/01/18 10:34:01;;;;;;;27.63;15.03;;;-0.80;99.90;;;;;;5054734;28;20297;-78
2023/01/18 10:36:37;;;;;;;27.63;16.03;;;-0.70;99.90;;;;;;5054838;28;20170;-78
2023/01/18 10:39:22;;;;;;;24.37;14.47;;;-0.70;99.90;;;;;;5053858;28;20348;-77
2023/01/18 10:41:49;;;;;;;30.13;15.30;;;-0.60;99.90;;;;;;5054530;28;20285;-78
2023/01/18 10:44:15;;;;;;;23.43;15.33;;;-0.60;99.90;;;;;;5053100;28;20669;-78
2023/01/18 10:46:41;;;;;;;24.53;14.50;;;-0.60;99.90;;;;;;5054076;28;20202;-77
2023/01/18 10:49:08;;;;;;;26.53;16.10;;;-0.50;99.90;;;;;;5053709;28;20203;-78
2023/01/18 10:51:36;;;;;;;25.30;15.00;;;-0.50;99.90;;;;;;5053004;28;20689;-78
2023/01/18 10:54:31;;;;;;;24.07;15.37;;;-0.40;99.90;;;;;;5053077;28;20178;-78
2023/01/18 10:57:02;;;;;;;25.37;16.47;;;-0.30;99.90;;;;;;5045629;28;20237;-78
2023/01/18 10:59:38;;;;;;;31.27;16.07;;;-0.30;99.90;;;;;;5053525;28;20209;-78
2023/01/18 11:02:04;;;;;;;27.73;16.23;;;-0.30;99.90;;;;;;5054381;28;20192;-78
2023/01/18 11:04:32;;;;;;;27.53;15.23;;;-0.20;99.90;;;;;;5054637;28;20187;-78
2023/01/18 11:07:03;;;;;;;26.33;15.13;;;-0.20;99.90;;;;;;5053350;28;20214;-78
2023/01/18 11:09:52;;;;;;;31.20;16.07;;;-0.10;99.90;;;;;;5053081;28;20674;-78
2023/01/18 11:12:40;;;;;;;30.20;17.53;;;0.00;99.90;;;;;;5055409;28;20195;-79
2023/01/18 11:15:14;;;;;;;27.60;15.33;;;0.10;99.90;;;;;;5055895;28;20156;-79
2023/01/18 11:17:59;;;;;;;24.10;15.30;;;0.10;99.90;;;;;;5069496;28;20194;-78
2023/01/18 11:20:49;;;;;;;28.10;15.97;;;0.20;99.90;;;;;;5052740;28;20277;-79
2023/01/18 11:23:31;;;;;;;28.07;15.50;;;0.30;99.90;;;;;;5053877;28;20516;-78
2023/01/18 11:26:05;;;;;;;32.73;15.23;;;0.40;99.90;;;;;;5053088;28;20198;-78
2023/01/18 11:28:38;;;;;;;28.30;15.70;;;0.50;99.90;;;;;;5052452;28;20178;-78
2023/01/18 11:31:12;;;;;;;32.00;17.03;;;0.60;99.90;;;;;;5052026;28;20227;-77
2023/01/18 11:33:53;;;;;;;28.10;17.00;;;0.60;99.90;;;;;;5052921;28;20204;-77
2023/01/18 11:36:32;;;;;;;26.97;15.87;;;0.70;99.90;;;;;;5051625;28;20735;-77
2023/01/18 11:39:25;;;;;;;26.23;16.50;;;0.80;99.90;;;;;;5052340;28;20188;-77
2023/01/18 11:42:29;;;;;;;25.93;15.60;;;0.90;99.90;;;;;;5053122;28;20210;-77
2023/01/18 11:45:00;;;;;;;27.47;15.37;;;1.00;99.90;;;;;;5053219;28;20170;-77
2023/01/18 11:47:36;;;;;;;31.13;16.90;;;1.10;99.90;;;;;;5052645;28;20559;-78
2023/01/18 11:50:19;;;;;;;28.33;16.07;;;1.10;99.90;;;;;;5053355;28;20163;-77
2023/01/18 11:52:52;;;;;;;31.83;16.97;;;1.20;99.90;;;;;;5052955;28;20156;-77
2023/01/18 11:55:36;;;;;;;26.10;16.33;;;1.30;99.90;;;;;;5052267;28;20163;-77
2023/01/18 11:58:04;;;;;;;27.90;16.37;;;1.30;99.90;;;;;;5050726;28;20185;-77
2023/01/18 12:00:43;;;;;;;27.83;15.63;;;1.30;99.90;;;;;;5051510;28;20186;-77
2023/01/18 12:03:21;;;;;;;26.10;14.93;;;1.40;99.90;;;;;;5053185;28;20178;-77
2023/01/18 12:06:02;;;;;;;24.83;15.37;;;1.40;99.90;;;;;;5053106;28;20655;-77
2023/01/18 12:08:48;;;;;;;25.23;15.20;;;1.50;99.90;;;;;;5052044;28;20264;-77
2023/01/18 12:11:50;;;;;;;24.83;14.27;;;1.50;99.90;;;;;;5050743;28;20203;-77
2023/01/18 12:14:24;;;;;;;19.33;13.90;;;1.50;99.90;;;;;;5052820;28;20169;-76
2023/01/18 12:16:55;;;;;;;23.50;14.27;;;1.60;99.90;;;;;;5052869;28;20168;-77
2023/01/18 12:19:37;;;;;;;22.37;12.90;;;1.60;99.90;;;;;;5051519;28;20179;-78
2023/01/18 12:22:31;;;;;;;25.30;13.40;;;1.70;99.90;;;;;;5031391;28;20221;-76
2023/01/18 12:25:27;;;;;;;20.93;12.40;;;1.80;99.90;;;;;;5006385;28;20195;-77
2023/01/18 12:28:18;;;;;;;22.83;12.73;;;1.80;99.90;;;;;;5050532;28;20199;-77
2023/01/18 12:30:54;;;;;;;19.57;12.47;;;1.90;99.90;;;;;;5052582;28;20187;-77
2023/01/18 12:33:35;;;;;;;17.10;12.80;;;1.90;99.90;;;;;;5051426;28;20179;-77
2023/01/18 12:36:22;;;;;;;26.73;12.60;;;2.00;99.90;;;;;;5052915;28;20170;-77
2023/01/18 12:38:53;;;;;;;20.40;11.63;;;2.00;99.90;;;;;;5051831;28;20186;-77
2023/01/18 12:41:36;;;;;;;16.33;11.43;;;2.10;99.90;;;;;;5052756;28;20203;-77
2023/01/18 12:44:09;;;;;;;18.50;11.13;;;2.10;99.90;;;;;;5051218;28;20290;-77
2023/01/18 12:46:56;;;;;;;17.50;10.37;;;2.10;99.90;;;;;;5055570;28;20179;-76
2023/01/18 12:49:25;;;;;;;17.57;11.23;;;2.20;99.90;;;;;;5055464;28;20180;-77
2023/01/18 12:51:55;;;;;;;18.40;10.43;;;2.20;99.90;;;;;;5056209;28;20191;-77
2023/01/18 12:54:29;;;;;;;15.93;10.03;;;2.20;99.90;;;;;;5056277;28;20178;-76
2023/01/18 12:56:56;;;;;;;15.40;9.47;;;2.30;99.90;;;;;;5054930;28;20263;-76
2023/01/18 12:59:43;;;;;;;15.77;10.37;;;2.30;99.90;;;;;;5055309;28;20172;-76
2023/01/18 13:02:24;;;;;;;16.93;9.50;;;2.40;99.90;;;;;;5056047;28;20245;-76
2023/01/18 13:05:33;;;;;;;14.83;9.20;;;2.40;99.90;;;;;;5056042;28;20171;-76
2023/01/18 13:08:33;;;;;;;13.77;9.47;;;2.50;99.90;;;;;;5043323;28;20180;-76
2023/01/18 13:11:04;;;;;;;12.97;8.37;;;2.50;99.90;;;;;;5054643;28;20198;-76
2023/01/18 13:13:30;;;;;;;16.20;8.17;;;2.60;99.90;;;;;;5055802;28;20175;-76
2023/01/18 13:16:24;;;;;;;14.97;8.43;;;2.60;99.90;;;;;;5053713;28;20540;-76
2023/01/18 13:19:02;;;;;;;12.20;7.47;;;2.70;99.90;;;;;;5052535;28;20198;-76
2023/01/18 13:21:44;;;;;;;10.77;7.20;;;2.70;99.90;;;;;;5054228;28;20218;-76
2023/01/18 13:24:45;;;;;;;12.73;7.13;;;2.80;99.90;;;;;;5055939;28;20170;-76
2023/01/18 13:27:15;;;;;;;9.87;7.20;;;2.80;99.90;;;;;;5037023;28;20239;-77
2023/01/18 13:29:42;;;;;;;11.43;6.83;;;2.80;99.90;;;;;;5055543;28;20187;-76
2023/01/18 13:32:28;;;;;;;14.43;6.73;;;2.90;99.90;;;;;;5055435;28;20196;-76